Time;durP1;ratioP1;P1;durP2;ratioP2;P2;SDS_P1;SDS_P2;PMS_P1;PMS_P2;Temp;Humidity;BMP_temperature;BMP_pressure;BME280_temperature;BME280_humidity;BME280_pressure;Samples;Min_cycle;Max_cycle;Signal;HPM_P1;HPM_P2
2022/03/27 00:01:49;;;;;;;;;42.00;33.00;;;;;16.24;65.72;102418.47;6333808;22;45530;-95
2022/03/27 00:04:14;;;;;;;;;46.75;34.50;;;;;16.14;65.70;102405.63;6332997;22;48084;-93
2022/03/27 00:06:39;;;;;;;;;35.50;31.25;;;;;16.19;65.68;102420.00;6333576;22;45543;-94
2022/03/27 00:09:05;;;;;;;;;41.00;34.00;;;;;16.15;66.01;102408.38;6333764;22;45344;-94
2022/03/27 00:11:30;;;;;;;;;39.50;32.75;;;;;16.14;66.14;102402.97;6334169;22;45463;-94
2022/03/27 00:13:59;;;;;;;;;39.00;29.00;;;;;16.11;66.63;102398.44;6333477;22;46824;-94
2022/03/27 00:16:26;;;;;;;;;35.50;31.00;;;;;16.11;66.00;102398.44;6333186;22;45401;-94
2022/03/27 00:18:51;;;;;;;;;40.75;34.00;;;;;16.01;66.29;102402.34;6333016;22;45428;-94
2022/03/27 00:21:17;;;;;;;;;44.25;36.00;;;;;16.00;66.59;102395.25;6359738;22;45360;-95
2022/03/27 00:23:43;;;;;;;;;35.75;32.00;;;;;16.05;66.36;102399.06;6333963;22;47760;-95
2022/03/27 00:26:10;;;;;;;;;46.25;36.25;;;;;16.01;66.28;102389.09;6333895;22;45231;-94
2022/03/27 00:28:35;;;;;;;;;37.25;30.50;;;;;15.98;66.76;102395.16;6333956;22;45207;-94
2022/03/27 00:31:04;;;;;;;;;41.50;32.75;;;;;16.10;66.57;102407.22;6332828;22;45357;-94
2022/03/27 00:33:31;;;;;;;;;46.25;37.25;;;;;16.04;66.23;102412.19;6333249;22;47540;-94
2022/03/27 00:35:57;;;;;;;;;41.25;35.00;;;;;15.99;66.42;102401.34;6333096;22;46057;-94
2022/03/27 00:38:23;;;;;;;;;38.75;33.00;;;;;16.03;66.95;102415.69;6360580;22;45348;-95
2022/03/27 00:40:51;;;;;;;;;45.75;35.50;;;;;15.92;66.75;102401.88;6333821;22;45292;-94
2022/03/27 00:43:18;;;;;;;;;43.50;35.75;;;;;15.90;67.26;102399.16;6332854;22;47098;-94
2022/03/27 00:45:43;;;;;;;;;33.00;31.00;;;;;15.90;66.89;102404.44;6360023;22;45943;-94
2022/03/27 00:48:10;;;;;;;;;29.50;27.25;;;;;15.91;67.46;102400.97;6333286;22;45374;-95
2022/03/27 00:50:36;;;;;;;;;29.75;25.25;;;;;15.95;67.26;102417.94;6360307;22;45367;-95
2022/03/27 00:53:01;;;;;;;;;42.00;36.00;;;;;15.91;67.10;102408.91;6359238;22;46750;-95
2022/03/27 00:55:26;;;;;;;;;40.50;32.25;;;;;15.91;67.22;102411.56;6333050;22;45509;-94
2022/03/27 00:57:52;;;;;;;;;45.75;33.75;;;;;15.93;67.63;102414.28;6335081;22;45323;-94
2022/03/27 01:00:43;;;;;;;;;38.50;33.25;;;;;15.88;67.71;102398.16;6333614;22;45308;-95
2022/03/27 01:03:11;;;;;;;;;38.75;34.25;;;;;15.88;68.07;102400.81;6333340;22;47165;-94
2022/03/27 01:05:41;;;;;;;;;46.50;33.25;;;;;15.84;67.97;102398.84;6332923;22;45507;-95
2022/03/27 01:08:09;;;;;;;;;42.75;33.25;;;;;15.91;68.33;102408.00;6332450;22;45253;-95
2022/03/27 01:10:38;;;;;;;;;34.75;29.25;;;;;15.81;68.17;102396.97;6359982;22;45209;-95
2022/03/27 01:13:19;;;;;;;;;45.25;35.25;;;;;15.82;68.00;102390.81;6332575;22;48082;-94
2022/03/27 01:16:00;;;;;;;;;39.25;35.00;;;;;15.85;68.70;102398.00;6332834;22;45958;-93
2022/03/27 01:18:26;;;;;;;;;36.50;34.25;;;;;15.63;67.90;102384.63;6333095;22;45388;-95
2022/03/27 01:20:53;;;;;;;;;40.00;36.50;;;;;15.73;68.56;102411.53;6331948;22;45220;-95
2022/03/27 01:23:18;;;;;;;;;40.25;31.75;;;;;15.61;68.43;102386.28;6359781;22;47051;-95
2022/03/27 01:25:45;;;;;;;;;45.50;35.00;;;;;15.79;68.31;102403.00;6332738;22;45430;-93
2022/03/27 01:28:13;;;;;;;;;45.25;34.25;;;;;15.70;68.73;102390.19;6332434;22;45472;-94
2022/03/27 01:30:40;;;;;;;;;43.00;31.25;;;;;15.72;68.49;102400.03;6332654;22;45319;-95
2022/03/27 01:33:09;;;;;;;;;44.75;30.25;;;;;15.59;68.78;102379.97;6359059;22;47248;-94
2022/03/27 01:35:35;;;;;;;;;36.75;33.75;;;;;15.65;68.78;102389.97;6332047;22;45680;-95
2022/03/27 01:38:00;;;;;;;;;39.25;35.75;;;;;15.61;68.56;102380.06;6358434;22;45417;-94
2022/03/27 01:40:26;;;;;;;;;35.25;30.25;;;;;15.61;68.78;102380.06;6332473;22;45379;-94
2022/03/27 01:42:55;;;;;;;;;41.00;34.00;;;;;15.51;69.74;102370.75;6333216;22;47864;-94
2022/03/27 01:45:23;;;;;;;;;45.50;36.75;;;;;15.44;70.07;102364.22;6333813;22;45586;-94
2022/03/27 01:47:49;;;;;;;;;40.00;33.00;;;;;15.52;69.58;102381.41;6360416;22;45316;-94
2022/03/27 01:50:15;;;;;;;;;38.00;29.50;;;;;15.45;70.60;102367.78;6333215;22;45549;-95
2022/03/27 01:52:40;;;;;;;;;37.50;33.25;;;;;15.45;69.33;102363.41;6333652;22;47926;-95
2022/03/27 01:55:07;;;;;;;;;44.50;36.75;;;;;15.47;69.46;102363.47;6360211;22;45494;-95
2022/03/27 01:57:33;;;;;;;;;41.50;32.75;;;;;15.47;69.84;102363.47;6333981;22;45304;-94
2022/03/27 01:59:58;;;;;;;;;42.25;31.50;;;;;15.33;70.60;102347.81;6338258;22;45413;-95
2022/03/27 02:02:24;;;;;;;;;35.50;28.25;;;;;15.34;70.34;102348.72;6362494;22;47094;-95
2022/03/27 02:04:51;;;;;;;;;36.25;32.75;;;;;15.41;70.04;102356.16;6359399;22;45244;-94
2022/03/27 02:07:18;;;;;;;;;28.75;24.00;;;;;15.41;70.41;102364.09;6359547;22;45163;-94
2022/03/27 02:09:44;;;;;;;;;34.25;30.25;;;;;15.29;70.46;102340.53;6360091;22;45386;-94
2022/03/27 02:12:09;;;;;;;;;32.00;23.75;;;;;15.25;70.84;102344.78;6333393;22;48004;-94
2022/03/27 02:14:35;;;;;;;;;35.25;31.50;;;;;15.30;70.07;102348.56;6333874;22;45413;-94
2022/03/27 02:17:00;;;;;;;;;36.00;29.50;;;;;15.27;70.80;102344.84;6333353;22;45753;-94
2022/03/27 02:19:26;;;;;;;;;33.50;29.50;;;;;15.27;71.53;102353.69;6333682;22;45425;-94
2022/03/27 02:21:51;;;;;;;;;34.00;28.00;;;;;15.25;71.20;102347.44;6333006;22;47991;-94
2022/03/27 02:24:17;;;;;;;;;30.75;23.25;;;;;15.28;71.12;102359.91;6360179;22;45892;-94
2022/03/27 02:26:45;;;;;;;;;32.25;26.25;;;;;15.32;70.97;102359.22;6360302;22;45353;-94
2022/03/27 02:29:12;;;;;;;;;30.25;28.00;;;;;15.27;70.96;102352.78;6333888;22;45327;-94
2022/03/27 02:31:38;;;;;;;;;29.25;25.75;;;;;15.24;71.25;102358.81;6360383;22;46935;-94
2022/03/27 02:34:04;;;;;;;;;34.25;28.00;;;;;15.22;71.21;102355.19;6333351;22;45967;-94
2022/03/27 02:36:29;;;;;;;;;30.00;26.75;;;;;15.14;71.47;102354.81;6333022;22;45420;-95
2022/03/27 02:38:54;;;;;;;;;40.25;28.25;;;;;15.18;71.07;102364.69;6333376;22;45427;-95
2022/03/27 02:41:20;;;;;;;;;40.25;31.25;;;;;15.08;70.87;102351.81;6333437;22;47339;-94
2022/03/27 02:43:45;;;;;;;;;33.50;29.50;;;;;15.14;71.49;102361.81;6359951;22;45324;-95
2022/03/27 02:46:10;;;;;;;;;27.50;23.75;;;;;15.09;71.73;102351.00;6333887;22;45755;-95
2022/03/27 02:48:36;;;;;;;;;35.50;29.25;;;;;15.07;71.59;102353.59;6333132;22;45498;-93
2022/03/27 02:51:01;;;;;;;;;35.75;29.00;;;;;15.17;71.68;102362.00;6333413;22;48246;-94
2022/03/27 02:53:27;;;;;;;;;33.00;26.00;;;;;15.05;71.91;102355.22;6333504;22;45315;-94
2022/03/27 02:55:52;;;;;;;;;32.50;30.00;;;;;15.12;71.79;102361.75;6362276;22;45774;-94
2022/03/27 02:58:17;;;;;;;;;38.00;29.00;;;;;15.07;72.03;102355.31;6335506;22;45324;-94
2022/03/27 03:00:43;;;;;;;;;36.50;29.50;;;;;15.12;72.38;102374.97;6361897;22;47116;-94
2022/03/27 03:03:10;;;;;;;;;37.50;29.00;;;;;15.07;72.63;102361.50;6361829;22;45564;-94
2022/03/27 03:05:40;;;;;;;;;29.25;20.50;;;;;15.05;72.28;102347.28;6338345;22;45161;-94
2022/03/27 03:08:10;;;;;;;;;30.25;27.25;;;;;14.93;72.37;102336.06;6334518;22;45400;-93
2022/03/27 03:10:36;;;;;;;;;30.00;28.25;;;;;14.97;72.49;102352.16;6341604;22;47245;-94
2022/03/27 03:13:01;;;;;;;;;33.50;30.00;;;;;15.01;72.54;102363.81;6335474;22;45698;-94
2022/03/27 03:15:27;;;;;;;;;35.25;30.25;;;;;14.94;72.73;102357.31;6335350;22;45167;-94
2022/03/27 03:17:53;;;;;;;;;34.25;29.75;;;;;14.94;72.47;102366.97;6363542;22;45615;-93
2022/03/27 03:20:19;;;;;;;;;38.75;27.25;;;;;14.88;72.59;102362.25;6361161;22;47051;-93
2022/03/27 03:22:45;;;;;;;;;30.25;27.00;;;;;14.85;73.39;102360.31;6360529;22;45367;-94
2022/03/27 03:25:10;;;;;;;;;27.75;22.50;;;;;14.84;73.15;102362.91;6347869;22;45361;-95
2022/03/27 03:27:36;;;;;;;;;29.00;24.50;;;;;14.88;73.08;102362.25;6354632;22;45414;-94
2022/03/27 03:30:04;;;;;;;;;27.75;25.00;;;;;14.83;73.12;102361.97;6361944;22;47132;-94
2022/03/27 03:32:30;;;;;;;;;40.50;28.00;;;;;14.83;73.43;102369.00;6359280;22;45508;-93
2022/03/27 03:34:55;;;;;;;;;37.25;30.00;;;;;14.85;73.48;102377.91;6356594;22;45132;-94
2022/03/27 03:37:21;;;;;;;;;32.00;25.00;;;;;14.81;73.07;102371.56;6353600;22;45461;-94
2022/03/27 03:39:46;;;;;;;;;32.75;27.75;;;;;14.74;73.26;102362.38;6345812;22;46918;-94
2022/03/27 03:42:12;;;;;;;;;36.00;28.50;;;;;14.69;73.33;102355.94;6344334;22;45296;-94
2022/03/27 03:44:37;;;;;;;;;36.25;28.25;;;;;14.72;73.26;102364.03;6368571;22;45113;-95
2022/03/27 03:47:03;;;;;;;;;27.00;23.75;;;;;14.73;73.79;102371.16;6334160;22;45237;-94
2022/03/27 03:49:29;;;;;;;;;36.00;29.25;;;;;14.60;74.06;102347.50;6359783;22;47315;-94
2022/03/27 03:51:54;;;;;;;;;33.25;28.25;;;;;14.60;73.25;102352.81;6333023;22;45430;-94
2022/03/27 03:54:20;;;;;;;;;31.25;26.75;;;;;14.56;73.70;102358.75;6360773;22;45441;-94
2022/03/27 03:56:45;;;;;;;;;30.50;28.00;;;;;14.55;74.44;102363.13;6360889;22;45414;-94
2022/03/27 03:59:10;;;;;;;;;34.25;29.75;;;;;14.59;74.48;102369.47;6359948;22;47787;-94
2022/03/27 04:01:36;;;;;;;;;31.75;27.50;;;;;14.59;74.43;102365.09;6333869;22;45457;-94
2022/03/27 04:04:01;;;;;;;;;25.25;22.75;;;;;14.46;74.09;102339.72;6360430;22;45433;-94
2022/03/27 04:06:27;;;;;;;;;26.25;23.75;;;;;14.49;74.18;102353.13;6333343;22;45494;-94
2022/03/27 04:08:52;;;;;;;;;25.00;24.25;;;;;14.47;74.40;102356.50;6333697;22;48299;-94
2022/03/27 04:11:17;;;;;;;;;25.75;24.00;;;;;14.47;74.26;102357.41;6360589;22;45372;-94
2022/03/27 04:13:44;;;;;;;;;27.75;24.25;;;;;14.47;74.41;102356.50;6334086;22;45674;-94
2022/03/27 04:16:10;;;;;;;;;32.25;28.25;;;;;14.50;74.22;102372.53;6334177;22;45348;-94
2022/03/27 04:18:36;;;;;;;;;33.00;26.25;;;;;14.41;74.89;102360.63;6332890;22;48253;-94
2022/03/27 04:21:01;;;;;;;;;29.75;25.25;;;;;14.42;74.79;102372.09;6332610;22;45287;-94
2022/03/27 04:23:26;;;;;;;;;30.25;28.25;;;;;14.43;74.79;102370.38;6360458;22;45278;-94
2022/03/27 04:25:52;;;;;;;;;29.50;25.75;;;;;14.44;74.54;102380.09;6333933;22;45288;-94
2022/03/27 04:28:17;;;;;;;;;27.75;24.25;;;;;14.43;74.93;102379.19;6333263;22;47057;-94
2022/03/27 04:30:43;;;;;;;;;31.75;30.25;;;;;14.33;75.05;102366.31;6333458;22;45272;-94
2022/03/27 04:33:08;;;;;;;;;31.50;26.00;;;;;14.21;75.00;102354.22;6334311;22;45778;-94
2022/03/27 04:35:34;;;;;;;;;27.75;24.00;;;;;14.25;74.96;102360.59;6332783;22;45311;-94
2022/03/27 04:38:00;;;;;;;;;26.50;23.00;;;;;14.24;75.11;102364.97;6332914;22;47345;-94
2022/03/27 04:40:25;;;;;;;;;34.50;26.75;;;;;14.27;75.15;102369.50;6333185;22;45442;-95
2022/03/27 04:42:51;;;;;;;;;32.75;23.75;;;;;14.23;75.52;102372.78;6333797;22;45255;-94
2022/03/27 04:45:17;;;;;;;;;32.00;27.50;;;;;14.26;75.31;102375.59;6333883;22;45362;-94
2022/03/27 04:47:42;;;;;;;;;29.25;23.50;;;;;14.22;75.23;102379.81;6360815;22;47241;-93
2022/03/27 04:50:09;;;;;;;;;30.25;26.25;;;;;14.12;75.86;102365.16;6332132;22;45418;-95
2022/03/27 04:52:35;;;;;;;;;29.25;26.25;;;;;14.23;76.00;102392.19;6332939;22;45256;-93
2022/03/27 04:55:01;;;;;;;;;27.25;21.25;;;;;14.16;76.16;102380.38;6333280;22;45438;-94
2022/03/27 04:57:37;;;;;;;;;35.25;28.25;;;;;14.24;75.90;102382.53;6360007;22;47184;-94
2022/03/27 05:00:05;;;;;;;;;32.25;27.00;;;;;14.10;76.66;102376.47;6333161;22;45550;-95
2022/03/27 05:02:30;;;;;;;;;28.00;23.50;;;;;14.06;76.29;102378.03;6307554;22;45413;-94
2022/03/27 05:04:56;;;;;;;;;37.00;29.25;;;;;14.11;76.34;102388.84;6334113;22;45267;-94
2022/03/27 05:07:21;;;;;;;;;29.75;28.50;;;;;13.98;76.20;102371.41;6332858;22;48130;-95
2022/03/27 05:09:47;;;;;;;;;28.25;23.00;;;;;13.97;76.56;102375.75;6359323;22;45445;-94
2022/03/27 05:12:12;;;;;;;;;28.75;26.50;;;;;13.94;77.13;102378.25;6360169;22;45494;-94
2022/03/27 05:14:37;;;;;;;;;37.00;29.75;;;;;14.02;76.61;102398.06;6360173;22;45451;-94
2022/03/27 05:17:04;;;;;;;;;28.50;26.50;;;;;13.92;76.93;102386.06;6359550;22;47146;-94
2022/03/27 05:19:30;;;;;;;;;27.75;24.25;;;;;13.89;76.56;102383.22;6331661;22;45570;-94
2022/03/27 05:21:56;;;;;;;;;29.25;23.75;;;;;13.85;76.55;102383.88;6332858;22;45272;-94
2022/03/27 05:24:21;;;;;;;;;24.75;19.75;;;;;13.92;77.51;102395.69;6335960;22;45216;-94
2022/03/27 05:26:46;;;;;;;;;30.00;25.00;;;;;13.87;76.93;102391.88;6360349;22;47450;-94
2022/03/27 05:29:13;;;;;;;;;29.50;25.25;;;;;13.87;77.59;102394.53;6360097;22;45912;-95
2022/03/27 05:31:39;;;;;;;;;28.75;24.25;;;;;13.90;76.72;102415.81;6333756;22;45288;-94
2022/03/27 05:34:05;;;;;;;;;29.75;24.00;;;;;13.81;77.23;102408.28;6332509;22;45332;-94
2022/03/27 05:36:30;;;;;;;;;29.50;24.50;;;;;13.80;77.55;102403.81;6332694;22;46411;-93
2022/03/27 05:38:56;;;;;;;;;33.50;26.75;;;;;13.75;77.95;102398.28;6332782;22;45409;-94
2022/03/27 05:41:21;;;;;;;;;40.25;26.50;;;;;13.76;77.64;102401.84;6333548;22;45313;-94
2022/03/27 05:43:47;;;;;;;;;26.25;25.25;;;;;13.72;77.43;102395.44;6332666;22;45381;-95
2022/03/27 05:46:12;;;;;;;;;29.50;24.00;;;;;13.76;77.69;102402.72;6333064;22;47712;-94
2022/03/27 05:48:38;;;;;;;;;28.75;26.75;;;;;13.75;77.99;102408.84;6358364;22;45358;-94
2022/03/27 05:51:03;;;;;;;;;21.00;13.00;;;;;13.66;77.92;102395.09;6334575;22;45505;-94
2022/03/27 05:53:30;;;;;;;;;30.25;26.25;;;;;13.67;78.29;102394.28;6359757;22;45244;-95
2022/03/27 05:55:57;;;;;;;;;31.50;21.75;;;;;13.66;78.03;102390.72;6359722;22;47382;-94
2022/03/27 05:58:22;;;;;;;;;36.50;30.00;;;;;13.60;78.03;102382.47;6359737;22;46072;-95
2022/03/27 06:00:49;;;;;;;;;33.25;27.75;;;;;13.69;78.47;102408.47;6331109;22;45239;-94
2022/03/27 06:03:15;;;;;;;;;34.50;32.00;;;;;13.70;78.94;102403.28;6330854;22;45319;-94
2022/03/27 06:05:41;;;;;;;;;29.00;24.75;;;;;13.70;78.21;102408.56;6330226;22;47190;-94
2022/03/27 06:08:06;;;;;;;;;31.50;27.00;;;;;13.77;78.50;102425.66;6331995;22;45369;-94
2022/03/27 06:10:32;;;;;;;;;28.50;25.75;;;;;13.69;78.94;102404.09;6357655;22;45275;-94
2022/03/27 06:13:00;;;;;;;;;35.00;29.50;;;;;13.79;78.78;102409.91;6357651;22;45455;-94
2022/03/27 06:15:27;;;;;;;;;33.00;27.00;;;;;13.80;78.46;102415.28;6330846;22;47029;-94
2022/03/27 06:17:54;;;;;;;;;39.50;32.75;;;;;13.88;78.30;102423.66;6330596;22;45206;-94
2022/03/27 06:20:26;;;;;;;;;33.25;28.00;;;;;14.00;78.99;102427.81;6330361;22;45852;-94
2022/03/27 06:22:53;;;;;;;;;32.00;25.00;;;;;13.90;78.93;102421.09;6332133;22;45211;-95
2022/03/27 06:25:21;;;;;;;;;39.25;30.50;;;;;13.85;79.67;102405.00;6332286;22;46083;-94
2022/03/27 06:27:48;;;;;;;;;29.25;25.00;;;;;13.89;79.23;102419.31;6330400;22;45327;-95
2022/03/27 06:30:15;;;;;;;;;33.50;26.75;;;;;13.92;79.24;102412.44;6332291;22;45393;-94
2022/03/27 06:32:42;;;;;;;;;28.50;25.75;;;;;14.04;78.85;102429.84;6362338;22;45187;-94
2022/03/27 06:35:10;;;;;;;;;27.00;24.50;;;;;14.03;78.86;102426.28;6333440;22;47968;-94
2022/03/27 06:37:36;;;;;;;;;32.25;27.75;;;;;14.10;79.00;102434.53;6333864;22;46055;-94
2022/03/27 06:40:02;;;;;;;;;32.00;25.25;;;;;14.11;78.92;102429.38;6361622;22;45403;-94
2022/03/27 06:42:28;;;;;;;;;33.00;25.25;;;;;14.17;79.13;102427.06;6336582;22;45430;-94
2022/03/27 06:44:54;;;;;;;;;28.00;22.50;;;;;14.27;79.26;102428.53;6334891;22;47006;-94
2022/03/27 06:47:21;;;;;;;;;27.25;21.25;;;;;14.35;78.88;102430.69;6362353;22;45210;-94
2022/03/27 06:49:47;;;;;;;;;31.50;26.00;;;;;14.44;79.03;102430.28;6333800;22;45341;-94
2022/03/27 06:52:14;;;;;;;;;36.00;27.25;;;;;14.38;79.17;102415.91;6335129;22;45193;-94
2022/03/27 06:54:39;;;;;;;;;36.50;30.25;;;;;14.52;79.17;102435.19;6361590;22;46968;-94
2022/03/27 06:57:05;;;;;;;;;31.75;27.75;;;;;14.55;79.28;102431.81;6335377;22;45310;-94
2022/03/27 07:03:01;;;;;;;;;30.00;29.50;;;;;14.70;79.02;102437.06;6298932;22;1441484;-93
2022/03/27 07:05:02;;;;;;;;;35.25;28.50;;;;;14.77;78.87;102424.16;6338441;22;45379;-94
2022/03/27 07:07:28;;;;;;;;;33.25;25.50;;;;;14.75;78.82;102413.50;6338264;22;45342;-94
2022/03/27 07:09:54;;;;;;;;;28.75;26.25;;;;;14.82;78.89;102428.88;6336925;22;45363;-93
2022/03/27 07:12:19;;;;;;;;;33.25;29.25;;;;;14.86;78.41;102427.38;6335355;22;45362;-92
2022/03/27 07:14:46;;;;;;;;;37.25;26.00;;;;;14.95;78.84;102432.22;6333845;22;46220;-91
2022/03/27 07:17:14;;;;;;;;;33.50;26.50;;;;;15.02;78.43;102422.91;6337685;22;45144;-92
2022/03/27 07:19:39;;;;;;;;;33.25;26.25;;;;;15.10;78.46;102444.47;6334331;22;45394;-92
2022/03/27 07:22:06;;;;;;;;;30.50;25.25;;;;;15.06;78.31;102419.59;6334367;22;45319;-92
2022/03/27 07:24:31;;;;;;;;;35.50;27.75;;;;;15.18;78.40;102430.81;6337192;22;45658;-92
2022/03/27 07:26:56;;;;;;;;;35.25;29.25;;;;;15.21;78.70;102424.78;6335039;22;45366;-91
2022/03/27 07:29:22;;;;;;;;;30.25;26.00;;;;;15.35;78.24;102441.41;6361323;22;45374;-92
2022/03/27 07:31:49;;;;;;;;;28.50;23.25;;;;;15.38;78.77;102445.94;6361811;22;45330;-92
2022/03/27 07:34:16;;;;;;;;;29.25;26.50;;;;;15.38;78.10;102431.00;6334511;22;47036;-92
2022/03/27 07:36:42;;;;;;;;;29.75;26.00;;;;;15.36;77.94;102423.81;6336936;22;45291;-93
2022/03/27 07:39:09;;;;;;;;;33.25;24.00;;;;;15.47;78.22;102440.22;6337281;22;45306;-91
2022/03/27 07:41:35;;;;;;;;;29.50;26.75;;;;;15.50;78.06;102430.72;6335222;22;45379;-92
2022/03/27 07:44:00;;;;;;;;;35.75;25.25;;;;;15.61;78.12;102448.91;6336397;22;45211;-92
2022/03/27 07:46:26;;;;;;;;;31.00;26.75;;;;;15.64;78.04;102441.13;6335070;22;45478;-92
2022/03/27 07:48:52;;;;;;;;;26.50;26.00;;;;;15.74;78.01;102442.50;6360929;22;45425;-90
2022/03/27 07:51:17;;;;;;;;;35.50;27.50;;;;;15.80;78.29;102442.78;6336579;22;45299;-92
2022/03/27 07:53:42;;;;;;;;;33.50;28.50;;;;;15.88;78.01;102447.56;6335974;22;45483;-92
2022/03/27 07:56:08;;;;;;;;;34.75;27.00;;;;;15.95;78.01;102439.13;6336193;22;45220;-92
2022/03/27 07:58:34;;;;;;;;;29.75;25.75;;;;;16.01;77.92;102441.16;6336708;22;45179;-93
2022/03/27 08:00:59;;;;;;;;;33.00;26.50;;;;;16.06;77.89;102443.22;6333101;22;45300;-92
2022/03/27 08:03:26;;;;;;;;;34.00;28.25;;;;;16.26;77.90;102453.91;6334195;22;47067;-92
2022/03/27 08:05:51;;;;;;;;;33.00;27.75;;;;;16.25;77.39;102444.16;6356972;22;45189;-91
2022/03/27 08:08:17;;;;;;;;;35.25;31.50;;;;;16.32;77.66;102442.69;6333135;22;45378;-92
2022/03/27 08:10:43;;;;;;;;;33.75;31.50;;;;;16.28;77.45;102423.13;6359294;22;45504;-91
2022/03/27 08:13:08;;;;;;;;;35.50;27.75;;;;;16.33;77.21;102433.03;6330276;22;47165;-93
2022/03/27 08:15:34;;;;;;;;;27.00;25.75;;;;;16.41;76.96;102435.22;6335778;22;45387;-91
2022/03/27 08:17:59;;;;;;;;;31.00;25.00;;;;;16.48;77.01;102435.50;6334418;22;45235;-91
2022/03/27 08:20:26;;;;;;;;;34.00;26.25;;;;;16.66;77.05;102454.03;6333311;22;45416;-92
2022/03/27 08:22:53;;;;;;;;;26.00;24.25;;;;;16.62;76.96;102439.72;6331734;22;48041;-92
2022/03/27 08:28:02;;;;;;;;;32.75;26.75;;;;;16.92;76.74;102457.00;6337307;22;45308;-89
2022/03/27 08:30:27;;;;;;;;;37.50;29.50;;;;;17.04;76.89;102455.75;6335356;22;45337;-90
2022/03/27 08:32:53;;;;;;;;;33.50;27.75;;;;;17.06;76.38;102443.47;6332623;22;45342;-90
2022/03/27 08:35:18;;;;;;;;;32.00;26.50;;;;;17.19;76.27;102453.81;6334128;22;45354;-90
2022/03/27 08:37:43;;;;;;;;;23.25;22.25;;;;;17.26;75.86;102447.06;6332566;22;46038;-92
2022/03/27 08:40:09;;;;;;;;;32.00;27.75;;;;;17.26;75.86;102436.44;6330184;22;45479;-91
2022/03/27 08:42:35;;;;;;;;;30.75;27.75;;;;;17.31;75.68;102444.63;6332109;22;45351;-91
2022/03/27 08:45:01;;;;;;;;;32.75;29.00;;;;;17.36;75.33;102444.81;6330312;22;45702;-92
2022/03/27 08:47:28;;;;;;;;;30.25;28.00;;;;;17.45;75.19;102453.16;6332873;22;45272;-91
2022/03/27 08:49:59;;;;;;;;;30.00;26.50;;;;;17.62;75.51;102445.06;6332157;22;45232;-89
2022/03/27 08:53:00;;;;;;;;;33.50;26.00;;;;;17.73;75.54;102448.19;6329329;22;47160;-90
2022/03/27 08:55:37;;;;;;;;;34.50;27.25;;;;;17.74;74.84;102445.59;6332993;22;45227;-89
2022/03/27 08:58:03;;;;;;;;;22.50;17.00;;;;;17.75;74.99;102444.75;6356732;22;45320;-91
2022/03/27 09:00:31;;;;;;;;;28.25;23.25;;;;;17.93;75.25;102449.03;6330282;22;45500;-91
2022/03/27 09:02:58;;;;;;;;;30.50;27.75;;;;;17.96;74.81;102443.81;6329250;22;45990;-90
2022/03/27 09:05:24;;;;;;;;;33.00;27.75;;;;;18.02;74.80;102443.16;6331864;22;45319;-92
2022/03/27 09:07:50;;;;;;;;;30.50;29.50;;;;;18.07;74.67;102443.34;6332944;22;45714;-91
2022/03/27 09:10:17;;;;;;;;;28.25;22.25;;;;;18.25;74.58;102458.28;6330588;22;45283;-91
2022/03/27 09:12:44;;;;;;;;;27.75;22.25;;;;;18.30;74.28;102449.66;6330750;22;48338;-90
2022/03/27 09:15:12;;;;;;;;;31.75;27.00;;;;;18.45;74.39;102463.53;6331027;22;45279;-92
2022/03/27 09:17:57;;;;;;;;;29.50;28.00;;;;;18.65;74.52;102456.31;6330900;22;45344;-91
2022/03/27 09:20:51;;;;;;;;;28.50;24.25;;;;;18.74;73.96;102455.75;6329998;22;45369;-91
2022/03/27 09:23:19;;;;;;;;;33.25;28.00;;;;;18.77;73.73;102455.88;6330836;22;46375;-92
2022/03/27 09:25:53;;;;;;;;;27.50;24.75;;;;;18.99;73.61;102465.59;6329188;22;45264;-92
2022/03/27 09:28:46;;;;;;;;;35.50;27.25;;;;;19.07;73.48;102454.34;6333216;22;45170;-91
2022/03/27 09:31:16;;;;;;;;;34.25;27.75;;;;;19.19;73.44;102461.91;6353863;22;45299;-93
2022/03/27 09:33:54;;;;;;;;;28.75;24.50;;;;;19.24;72.96;102454.09;6329548;22;47799;-91
2022/03/27 09:36:26;;;;;;;;;24.25;23.75;;;;;19.26;72.13;102460.38;6330143;22;45600;-92
2022/03/27 09:39:00;;;;;;;;;24.50;20.25;;;;;19.40;72.28;102452.91;6330737;22;45407;-91
2022/03/27 09:41:30;;;;;;;;;35.25;25.00;;;;;19.50;72.45;102456.78;6330734;22;45297;-91
2022/03/27 09:44:03;;;;;;;;;31.50;28.25;;;;;19.64;72.32;102451.94;6330543;22;46060;-91
2022/03/27 09:46:48;;;;;;;;;28.25;24.75;;;;;19.71;71.85;102447.75;6329824;22;45838;-92
2022/03/27 09:49:19;;;;;;;;;30.50;25.25;;;;;19.75;71.54;102445.22;6332038;22;45254;-94
2022/03/27 09:52:00;;;;;;;;;31.75;24.25;;;;;19.85;71.60;102458.84;6328415;22;45340;-93
2022/03/27 09:54:28;;;;;;;;;33.25;25.00;;;;;19.82;71.64;102442.75;6329085;22;45621;-94
2022/03/27 09:56:53;;;;;;;;;24.25;21.00;;;;;19.88;71.60;102451.88;6331231;22;45901;-93
2022/03/27 09:59:34;;;;;;;;;31.75;24.50;;;;;20.01;71.02;102438.06;6357034;22;45447;-92
2022/03/27 10:02:19;;;;;;;;;31.75;27.75;;;;;20.11;71.18;102450.84;6333246;22;45177;-90
2022/03/27 10:05:06;;;;;;;;;32.25;27.75;;;;;20.15;70.38;102436.78;6335245;22;45340;-93
2022/03/27 10:07:37;;;;;;;;;30.75;25.50;;;;;20.24;70.83;102438.84;6334241;22;45165;-91
2022/03/27 10:10:05;;;;;;;;;27.25;22.75;;;;;20.27;70.83;102435.38;6332562;22;45759;-93
2022/03/27 10:12:33;;;;;;;;;30.50;25.75;;;;;20.36;71.01;102435.66;6334739;22;45266;-91
2022/03/27 10:15:01;;;;;;;;;29.50;25.75;;;;;20.50;70.31;102436.09;6335497;22;46133;-91
2022/03/27 10:17:28;;;;;;;;;32.25;27.75;;;;;20.58;70.29;102432.75;6332712;22;46495;-92
2022/03/27 10:19:59;;;;;;;;;81.25;64.25;;;;;20.73;70.10;102430.56;6335273;22;45314;-93
2022/03/27 10:22:27;;;;;;;;;64.50;48.75;;;;;20.78;69.93;102430.69;6334120;22;45315;-92
2022/03/27 10:24:56;;;;;;;;;42.25;33.00;;;;;20.88;70.03;102438.09;6332793;22;47406;-93
2022/03/27 10:27:22;;;;;;;;;28.75;26.00;;;;;20.82;69.82;102423.69;6333866;22;45334;-92
2022/03/27 10:29:47;;;;;;;;;37.00;33.00;;;;;20.94;69.30;102426.72;6333953;22;45248;-94
2022/03/27 10:32:13;;;;;;;;;37.50;27.75;;;;;20.93;69.17;102424.91;6333934;22;45312;-92
2022/03/27 10:35:16;;;;;;;;;29.25;26.50;;;;;21.10;69.31;102427.19;6332740;22;46948;-93
2022/03/27 10:38:10;;;;;;;;;26.75;22.50;;;;;21.26;69.78;102422.28;6333276;22;45525;-92
2022/03/27 10:41:13;;;;;;;;;38.00;33.00;;;;;21.41;69.81;102411.09;6336551;22;45241;-93
2022/03/27 10:43:48;;;;;;;;;32.25;28.75;;;;;21.53;69.65;102410.50;6213162;22;45470;-95
2022/03/27 10:46:21;;;;;;;;;30.50;23.50;;;;;21.52;69.29;102398.00;6239898;22;47393;-93
2022/03/27 10:48:49;;;;;;;;;27.00;24.75;;;;;21.65;69.82;102399.22;6264250;22;45902;-93
2022/03/27 10:51:26;;;;;;;;;32.75;28.00;;;;;21.90;68.64;102399.91;6212609;22;45259;-93
2022/03/27 10:54:14;;;;;;;;;24.25;23.75;;;;;21.97;68.75;102388.47;6213477;22;45359;-93
2022/03/27 10:56:46;;;;;;;;;88.25;79.00;;;;;22.10;68.39;102383.41;6239339;22;47529;-92
2022/03/27 10:59:14;;;;;;;;;40.75;32.50;;;;;22.16;68.39;102380.88;6213922;22;45239;-92
2022/03/27 11:01:41;;;;;;;;;49.00;38.25;;;;;22.33;67.35;102383.94;6240626;22;45338;-91
2022/03/27 11:04:12;;;;;;;;;56.00;43.00;;;;;22.48;66.93;102384.25;6237790;22;45343;-95
2022/03/27 11:06:46;;;;;;;;;31.25;28.75;;;;;22.55;66.73;102378.13;6237571;22;46229;-92
2022/03/27 11:09:34;;;;;;;;;38.00;34.00;;;;;22.64;66.72;102367.66;6215461;22;45315;-94
2022/03/27 11:12:02;;;;;;;;;36.75;29.75;;;;;22.74;66.13;102370.53;6243167;22;45342;-92
2022/03/27 11:14:52;;;;;;;;;28.75;25.00;;;;;22.95;66.22;102364.72;6238899;22;45428;-93
2022/03/27 11:17:38;;;;;;;;;30.00;27.50;;;;;23.03;65.40;102362.19;6213619;22;47142;-93
2022/03/27 11:20:06;;;;;;;;;31.50;27.00;;;;;23.02;65.30;102351.44;6261744;22;45458;-91